Temp: 15.6°C   Baro: 1011.8mb
  Wind: 16.1mph   Dir: WNW (283°)
  Rain: 2.0mm (0.0mm/hr)
  Solar: 731W/m2  Hum: 70%
 
Bath Spa Weather Station Historical Data
Daily Summary for November 18, 2019 Units:  Metric    English   Both
Daily Weekly Monthly Yearly Custom
  High: Low: Average:
Temperature: 9.7 °C 0.2 °C 5.1 °C
Dew Point: 5.8 °C -0.9 °C 3 °C
Humidity: 94% 72.4% 87%
Wind Speed: 11.7km/h 0km/h 2.4km/h
Wind Gust: 24.1km/h - -
Wind- - West
Pressure: 1018.2 hPa 1015.1 hPa -
Precipitation: 0 mm    
Historical Graphs
 
 
Tabular Data for November 18, 2019
Time Temperature Dew Point Pressure Wind Wind Speed Wind Gust Humidity Rainfall Rate (Hourly) solar
00:04 7.4 °C 5.7 °C 1015.1 hPa NNW 3.7 km/h 9.7 km/h 89% 0 mm 0 W/m2
00:09 7.4 °C 5.7 °C 1015.1 hPa North 6.3 km/h 12.9 km/h 89% 0 mm 0 W/m2
00:14 7.4 °C 5.7 °C 1015.1 hPa NNW 5 km/h 11.3 km/h 89% 0 mm 0 W/m2
00:19 7.4 °C 5.7 °C 1015.1 hPa NNW 4.3 km/h 11.3 km/h 89% 0 mm 0 W/m2
00:24 7.4 °C 5.7 °C 1015.1 hPa NNW 6.6 km/h 12.9 km/h 89% 0 mm 0 W/m2
00:29 7.4 °C 5.7 °C 1015.1 hPa NNW 4.5 km/h 11.3 km/h 89% 0 mm 0 W/m2
00:34 7.3 °C 5.6 °C 1015.1 hPa NNW 5 km/h 11.3 km/h 89% 0 mm 0 W/m2
00:39 7.3 °C 5.8 °C 1015.1 hPa North 4.8 km/h 12.9 km/h 90% 0 mm 0 W/m2
00:44 7.2 °C 5.7 °C 1015.1 hPa NNW 3.1 km/h 9.7 km/h 90% 0 mm 0 W/m2
00:49 7.1 °C 5.5 °C 1015.1 hPa North 5.6 km/h 12.9 km/h 89.5% 0 mm 0 W/m2
00:54 7 °C 5.5 °C 1015.1 hPa North 10 km/h 17.7 km/h 90% 0 mm 0 W/m2
00:59 6.9 °C 5.4 °C 1015.5 hPa North 9 km/h 17.7 km/h 90% 0 mm 0 W/m2
01:04 7 °C 5.4 °C 1015.5 hPa North 7.9 km/h 19.3 km/h 89.6% 0 mm 0 W/m2
01:09 7.1 °C 5.4 °C 1015.5 hPa NNE 9.5 km/h 16.1 km/h 89.2% 0 mm 0 W/m2
01:14 7.1 °C 5.4 °C 1015.5 hPa NNE 11.7 km/h 20.9 km/h 89% 0 mm 0 W/m2
01:19 7.1 °C 5.4 °C 1015.5 hPa NNE 6.8 km/h 16.1 km/h 89% 0 mm 0 W/m2
01:24 7.2 °C 5.3 °C 1015.5 hPa NNE 9.5 km/h 17.7 km/h 88.3% 0 mm 0 W/m2
01:29 7.2 °C 5.3 °C 1015.8 hPa NNE 11.3 km/h 24.1 km/h 88% 0 mm 0 W/m2
01:34 7.2 °C 5.3 °C 1015.8 hPa NNW 5.6 km/h 14.5 km/h 88% 0 mm 0 W/m2
01:39 7.2 °C 5.2 °C 1015.5 hPa NNW 1.4 km/h 11.3 km/h 88% 0 mm 0 W/m2
01:44 7.1 °C 5.2 °C 1015.5 hPa North 2.9 km/h 11.3 km/h 88% 0 mm 0 W/m2
01:49 6.9 °C 5.1 °C 1015.5 hPa North 5.3 km/h 9.7 km/h 88% 0 mm 0 W/m2
01:54 6.8 °C 5 °C 1015.5 hPa North 4.7 km/h 11.3 km/h 88% 0 mm 0 W/m2
01:59 6.7 °C 4.9 °C 1015.5 hPa North 7.1 km/h 14.5 km/h 88% 0 mm 0 W/m2
02:04 6.7 °C 4.9 °C 1015.5 hPa North 5.5 km/h 16.1 km/h 88% 0 mm 0 W/m2
02:09 6.6 °C 4.8 °C 1015.5 hPa NNE 5.5 km/h 12.9 km/h 88.2% 0 mm 0 W/m2
02:14 6.6 °C 4.9 °C 1015.8 hPa North 8.5 km/h 17.7 km/h 89% 0 mm 0 W/m2
02:19 6.6 °C 4.9 °C 1015.8 hPa NNE 10.9 km/h 20.9 km/h 89% 0 mm 0 W/m2
02:24 6.6 °C 4.9 °C 1015.8 hPa North 9.2 km/h 20.9 km/h 89% 0 mm 0 W/m2
02:29 6.6 °C 4.9 °C 1015.8 hPa North 7.6 km/h 16.1 km/h 89% 0 mm 0 W/m2
02:34 6.6 °C 4.9 °C 1015.8 hPa North 7.2 km/h 16.1 km/h 89% 0 mm 0 W/m2
02:39 6.4 °C 4.7 °C 1015.8 hPa North 5.6 km/h 16.1 km/h 88.8% 0 mm 0 W/m2
02:44 6.3 °C 4.6 °C 1016.1 hPa North 7.4 km/h 12.9 km/h 88.5% 0 mm 0 W/m2
02:49 6.3 °C 4.4 °C 1016.1 hPa North 6.6 km/h 11.3 km/h 88% 0 mm 0 W/m2
02:54 6.2 °C 4.3 °C 1016.1 hPa NW 2.9 km/h 11.3 km/h 88% 0 mm 0 W/m2
02:59 6.1 °C 4.2 °C 1016.1 hPa NNW 6.4 km/h 14.5 km/h 88% 0 mm 0 W/m2
03:04 5.9 °C 4.1 °C 1015.8 hPa NNW 1.3 km/h 14.5 km/h 88% 0 mm 0 W/m2
03:09 5.9 °C 4.1 °C 1015.8 hPa NNW 1.4 km/h 8 km/h 88% 0 mm 0 W/m2
03:14 5.8 °C 4.1 °C 1015.8 hPa NNW 2.3 km/h 6.4 km/h 88.8% 0 mm 0 W/m2
03:19 5.7 °C 4 °C 1015.8 hPa NW 2.4 km/h 9.7 km/h 89% 0 mm 0 W/m2
03:24 5.7 °C 3.9 °C 1015.8 hPa North 4 km/h 12.9 km/h 89% 0 mm 0 W/m2
03:29 5.6 °C 3.9 °C 1015.8 hPa North 2.4 km/h 11.3 km/h 89% 0 mm 0 W/m2
03:34 5.6 °C 3.9 °C 1015.8 hPa North 2.6 km/h 9.7 km/h 89% 0 mm 0 W/m2
03:39 5.6 °C 3.9 °C 1015.8 hPa North 2.3 km/h 8 km/h 89% 0 mm 0 W/m2
03:44 5.6 °C 3.8 °C 1016.1 hPa North 4.5 km/h 12.9 km/h 89% 0 mm 0 W/m2
03:49 5.5 °C 3.8 °C 1016.1 hPa North 1.3 km/h 12.9 km/h 89% 0 mm 0 W/m2
03:54 5.4 °C 3.7 °C 1015.8 hPa NNE 2.9 km/h 11.3 km/h 89% 0 mm 0 W/m2
03:59 5.4 °C 3.7 °C 1016.1 hPa North 1.6 km/h 6.4 km/h 89% 0 mm 0 W/m2
04:04 5.3 °C 3.6 °C 1016.1 hPa North 1.8 km/h 6.4 km/h 89% 0 mm 0 W/m2
04:09 5.2 °C 3.5 °C 1016.1 hPa North 0.2 km/h 6.4 km/h 89% 0 mm 0 W/m2
04:14 5.1 °C 3.4 °C 1016.1 hPa North 0.8 km/h 6.4 km/h 89% 0 mm 0 W/m2
04:19 5.1 °C 3.3 °C 1016.5 hPa NW 2.7 km/h 9.7 km/h 89% 0 mm 0 W/m2
04:24 4.9 °C 3.3 °C 1016.5 hPa NW 0.5 km/h 6.4 km/h 89% 0 mm 0 W/m2
04:29 4.9 °C 3.2 °C 1016.5 hPa NW 0.3 km/h 3.2 km/h 89% 0 mm 0 W/m2
04:34 4.9 °C 3.3 °C 1016.8 hPa NW 1.4 km/h 4.8 km/h 89.3% 0 mm 0 W/m2
04:39 4.8 °C 3.3 °C 1016.8 hPa NW 0.2 km/h 3.2 km/h 90% 0 mm 0 W/m2
04:44 4.8 °C 3.3 °C 1016.8 hPa NW 0.5 km/h 4.8 km/h 90% 0 mm 0 W/m2
04:49 4.8 °C 3.3 °C 1016.5 hPa NW 1 km/h 4.8 km/h 90% 0 mm 0 W/m2
04:54 4.8 °C 3.3 °C 1016.5 hPa Calm   1.6 km/h 90% 0 mm 0 W/m2
04:59 4.8 °C 3.3 °C 1016.5 hPa Calm   1.6 km/h 90% 0 mm 0 W/m2
05:04 4.8 °C 3.3 °C 1016.8 hPa Calm   1.6 km/h 90% 0 mm 0 W/m2
05:09 4.7 °C 3.2 °C 1016.8 hPa Calm   1.6 km/h 90% 0 mm 0 W/m2
05:14 4.7 °C 3.2 °C 1016.8 hPa Calm   1.6 km/h 90% 0 mm 0 W/m2
05:19 4.7 °C 3.2 °C 1016.8 hPa NW 0.2 km/h 1.6 km/h 90% 0 mm 0 W/m2
05:24 4.7 °C 3.2 °C 1016.8 hPa Calm   1.6 km/h 90% 0 mm 0 W/m2
05:29 4.6 °C 3.2 °C 1016.8 hPa NW 0.2 km/h 1.6 km/h 90.6% 0 mm 0 W/m2
05:34 4.6 °C 3.3 °C 1016.8 hPa NW 0.2 km/h 3.2 km/h 91% 0 mm 0 W/m2
05:39 4.6 °C 3.3 °C 1016.8 hPa NW 1 km/h 4.8 km/h 91% 0 mm 0 W/m2
05:44 4.7 °C 3.4 °C 1016.8 hPa NW 1.6 km/h 6.4 km/h 91% 0 mm 0 W/m2
05:49 4.7 °C 3.4 °C 1016.8 hPa NW 1.9 km/h 6.4 km/h 91% 0 mm 0 W/m2
05:54 4.7 °C 3.4 °C 1016.8 hPa NW 1.6 km/h 8 km/h 91% 0 mm 0 W/m2
05:59 4.8 °C 3.4 °C 1016.8 hPa NW 1.9 km/h 8 km/h 91% 0 mm 0 W/m2
06:04 4.8 °C 3.5 °C 1016.8 hPa NW 1.3 km/h 6.4 km/h 91% 0 mm 0 W/m2
06:09 4.8 °C 3.5 °C 1016.8 hPa NW 0.6 km/h 6.4 km/h 91% 0 mm 0 W/m2
06:14 4.7 °C 3.4 °C 1016.8 hPa NW 0.3 km/h 4.8 km/h 91% 0 mm 0 W/m2
06:19 4.6 °C 3.3 °C 1016.8 hPa Calm   1.6 km/h 91% 0 mm 0 W/m2
06:24 4.4 °C 3.1 °C 1017.2 hPa NW 1.1 km/h 6.4 km/h 91% 0 mm 0 W/m2
06:29 4.3 °C 3.1 °C 1017.2 hPa NW 1.3 km/h 4.8 km/h 91% 0 mm 0 W/m2
06:34 4.2 °C 2.8 °C 1017.2 hPa NW 1.9 km/h 4.8 km/h 91% 0 mm 0 W/m2
06:39 3.9 °C 2.7 °C 1017.2 hPa NW 1 km/h 3.2 km/h 91% 0 mm 0 W/m2
06:44 3.8 °C 2.6 °C 1017.2 hPa NW 0.6 km/h 4.8 km/h 91.7% 0 mm 0 W/m2
06:49 3.7 °C 2.5 °C 1017.2 hPa NW 0.3 km/h 1.6 km/h 91.8% 0 mm 0 W/m2
06:54 3.7 °C 2.5 °C 1017.2 hPa Calm   1.6 km/h 92% 0 mm 0 W/m2
06:59 3.7 °C 2.5 °C 1017.2 hPa NW 0.8 km/h 4.8 km/h 92% 0 mm 0 W/m2
07:04 3.6 °C 2.3 °C 1017.5 hPa NW 1.9 km/h 6.4 km/h 92% 0 mm 0 W/m2
07:09 3.5 °C 2.3 °C 1017.5 hPa NW 0.3 km/h 3.2 km/h 92% 0 mm 0 W/m2
07:14 3.5 °C 2.3 °C 1017.5 hPa NW 0.5 km/h 3.2 km/h 92% 0 mm 0 W/m2
07:19 3.5 °C 2.3 °C 1017.5 hPa NW 0.5 km/h 3.2 km/h 92% 0 mm 0 W/m2
07:24 3.5 °C 2.3 °C 1017.8 hPa NW 0.2 km/h 1.6 km/h 92% 0 mm 0 W/m2
07:29 3.4 °C 2.2 °C 1017.8 hPa Calm   1.6 km/h 92% 0 mm 0 W/m2
07:34 3.4 °C 2.2 °C 1017.8 hPa Calm     92% 0 mm 0 W/m2
07:39 3.2 °C 2.1 °C 1017.8 hPa Calm     92% 0 mm 5 W/m2
07:44 3.2 °C 2 °C 1017.8 hPa Calm   1.6 km/h 92.2% 0 mm 9 W/m2
07:49 3.1 °C 1.9 °C 1017.8 hPa Calm   1.6 km/h 92% 0 mm 11 W/m2
07:54 3.1 °C 1.9 °C 1017.8 hPa NW 0.8 km/h 3.2 km/h 92% 0 mm 12 W/m2
07:59 3.1 °C 2.1 °C 1017.8 hPa NW 0.5 km/h 4.8 km/h 93% 0 mm 12 W/m2
08:04 3.2 °C 2.2 °C 1017.8 hPa NW 2.9 km/h 6.4 km/h 93% 0 mm 14 W/m2
08:09 3.2 °C 2.2 °C 1017.8 hPa NW 0.6 km/h 4.8 km/h 93% 0 mm 16 W/m2
08:14 3.3 °C 2.3 °C 1017.8 hPa Calm   6.4 km/h 93% 0 mm 19 W/m2
08:19 3.3 °C 2.3 °C 1017.8 hPa Calm     93% 0 mm 21 W/m2
08:24 3.7 °C 2.7 °C 1017.8 hPa Calm   1.6 km/h 93% 0 mm 23 W/m2
08:29 3.7 °C 2.7 °C 1017.8 hPa Calm     93% 0 mm 25 W/m2
08:34 3.8 °C 2.8 °C 1017.8 hPa Calm     93% 0 mm 28 W/m2
08:39 4.1 °C 3.1 °C 1017.8 hPa Calm     93% 0 mm 28 W/m2
08:44 4.2 °C 3.3 °C 1017.8 hPa Calm     93.2% 0 mm 28 W/m2
08:49 4.2 °C 3.2 °C 1017.8 hPa Calm     93.2% 0 mm 30 W/m2
08:54 4.3 °C 3.3 °C 1017.8 hPa NW 0.2 km/h 3.2 km/h 93.3% 0 mm 32 W/m2
08:59 4.4 °C 3.5 °C 1017.8 hPa NW 0.2 km/h 3.2 km/h 94% 0 mm 33 W/m2
09:04 4.7 °C 3.8 °C 1017.8 hPa NW 0.5 km/h 4.8 km/h 94% 0 mm 40 W/m2
09:09 4.9 °C 4 °C 1017.8 hPa NW 3.5 km/h 9.7 km/h 94% 0 mm 47 W/m2
09:14 5.1 °C 4.2 °C 1017.8 hPa WNW 1.3 km/h 9.7 km/h 94% 0 mm 56 W/m2
09:19 4.8 °C 3.9 °C 1017.8 hPa WNW 4.8 km/h 8 km/h 93.6% 0 mm 69 W/m2
09:24 4.7 °C 3.7 °C 1017.8 hPa WNW 3.1 km/h 9.7 km/h 93% 0 mm 70 W/m2
09:29 4.8 °C 3.8 °C 1017.8 hPa WNW 4 km/h 9.7 km/h 93% 0 mm 84 W/m2
09:34 4.8 °C 3.8 °C 1017.8 hPa WNW 2.6 km/h 9.7 km/h 93% 0 mm 95 W/m2
09:39 5 °C 4 °C 1017.8 hPa WNW 5 km/h 9.7 km/h 93% 0 mm 107 W/m2
09:44 5.1 °C 4.1 °C 1017.8 hPa West 4.5 km/h 9.7 km/h 93% 0 mm 118 W/m2
09:49 5.3 °C 4.3 °C 1017.8 hPa WNW 4 km/h 11.3 km/h 93% 0 mm 123 W/m2
09:54 5.8 °C 4.8 °C 1017.8 hPa NNW 4.3 km/h 11.3 km/h 93% 0 mm 137 W/m2
09:59 6.1 °C 4.9 °C 1017.8 hPa NW 5.8 km/h 12.9 km/h 92.2% 0 mm 144 W/m2
10:04 6.2 °C 4.8 °C 1017.8 hPa NNW 8.4 km/h 19.3 km/h 90.9% 0 mm 158 W/m2
10:09 6.2 °C 4.6 °C 1017.8 hPa North 8.4 km/h 19.3 km/h 89.5% 0 mm 163 W/m2
10:14 6.3 °C 4.6 °C 1017.5 hPa NNW 7.7 km/h 17.7 km/h 88.5% 0 mm 171 W/m2
10:19 6.4 °C 4.5 °C 1017.5 hPa North 7.6 km/h 17.7 km/h 87.7% 0 mm 181 W/m2
10:24 6.4 °C 4.4 °C 1017.5 hPa North 5.6 km/h 14.5 km/h 87% 0 mm 188 W/m2
10:29 6.7 °C 4.6 °C 1017.5 hPa NW 4 km/h 11.3 km/h 86.6% 0 mm 195 W/m2
10:34 6.8 °C 4.6 °C 1017.5 hPa NW 2.3 km/h 8 km/h 86% 0 mm 202 W/m2
10:39 7.1 °C 4.9 °C 1017.5 hPa NW 4.2 km/h 11.3 km/h 85.9% 0 mm 209 W/m2
10:44 7.1 °C 4.7 °C 1017.5 hPa NW 5 km/h 11.3 km/h 84.5% 0 mm 216 W/m2
10:49 7.2 °C 4.7 °C 1017.8 hPa NNW 5 km/h 11.3 km/h 84% 0 mm 223 W/m2
10:54 7.3 °C 4.7 °C 1017.5 hPa NW 4 km/h 11.3 km/h 83.7% 0 mm 229 W/m2
10:59 7.3 °C 4.7 °C 1017.5 hPa NW 6.4 km/h 11.3 km/h 83.1% 0 mm 230 W/m2
11:04 7.3 °C 4.7 °C 1017.5 hPa NW 7.6 km/h 16.1 km/h 83% 0 mm 246 W/m2
11:09 7.3 °C 4.6 °C 1017.5 hPa NNW 6.4 km/h 16.1 km/h 83% 0 mm 243 W/m2
11:14 7.2 °C 4.4 °C 1017.5 hPa NNW 7.6 km/h 17.7 km/h 82.5% 0 mm 257 W/m2
11:19 7.3 °C 4.5 °C 1017.5 hPa NW 8 km/h 16.1 km/h 82.5% 0 mm 276 W/m2
11:24 7.3 °C 4.4 °C 1017.5 hPa NW 6.6 km/h 17.7 km/h 82% 0 mm 294 W/m2
11:29 7.3 °C 4.4 °C 1017.5 hPa NW 9.7 km/h 17.7 km/h 82% 0 mm 283 W/m2
11:34 7.1 °C 4.2 °C 1017.5 hPa North 3.7 km/h 14.5 km/h 82.2% 0 mm 264 W/m2
11:39 7.3 °C 4.6 °C 1017.5 hPa NW 4.2 km/h 16.1 km/h 82.8% 0 mm 276 W/m2
11:44 7.4 °C 4.4 °C 1017.5 hPa NW 7.9 km/h 16.1 km/h 81.9% 0 mm 281 W/m2
11:49 7.3 °C 4.3 °C 1017.2 hPa NW 9.8 km/h 19.3 km/h 81.2% 0 mm 279 W/m2
11:54 7.3 °C 4.3 °C 1017.2 hPa NW 8 km/h 19.3 km/h 81% 0 mm 290 W/m2
11:59 7.6 °C 4.5 °C 1017.2 hPa NW 6.4 km/h 16.1 km/h 81% 0 mm 294 W/m2
12:04 7.6 °C 4.5 °C 1017.2 hPa NW 7.1 km/h 16.1 km/h 81% 0 mm 302 W/m2
12:09 7.6 °C 4.4 °C 1017.2 hPa NW 8.9 km/h 19.3 km/h 80.1% 0 mm 332 W/m2
12:14 7.6 °C 4.4 °C 1017.2 hPa NW 7.7 km/h 19.3 km/h 80% 0 mm 315 W/m2
12:19 7.8 °C 4.6 °C 1017.2 hPa NW 4 km/h 11.3 km/h 80% 0 mm 315 W/m2
12:24 8 °C 4.7 °C 1017.2 hPa NNW 7.4 km/h 16.1 km/h 79.4% 0 mm 290 W/m2
12:29 8.1 °C 4.7 °C 1017.2 hPa NW 8.5 km/h 20.9 km/h 78.7% 0 mm 295 W/m2
12:34 8 °C 4.4 °C 1017.2 hPa NW 8.9 km/h 19.3 km/h 78% 0 mm 285 W/m2
12:39 8.3 °C 4.7 °C 1017.2 hPa NNW 3.1 km/h 12.9 km/h 77.9% 0 mm 276 W/m2
12:44 8.8 °C 4.8 °C 1017.2 hPa NW 5.1 km/h 16.1 km/h 76% 0 mm 279 W/m2
12:49 8.4 °C 4.3 °C 1017.2 hPa NNW 10.6 km/h 22.5 km/h 75% 0 mm 279 W/m2
12:54 8.1 °C 4.1 °C 1017.2 hPa NW 6.4 km/h 16.1 km/h 75.7% 0 mm 98 W/m2
12:59 8.3 °C 4.4 °C 1017.2 hPa NW 3.7 km/h 9.7 km/h 76.9% 0 mm 295 W/m2
13:04 8.6 °C 4.4 °C 1017.2 hPa NNW 7.6 km/h 20.9 km/h 75.6% 0 mm 267 W/m2
13:09 8.6 °C 4.6 °C 1017.2 hPa NNW 4.7 km/h 20.9 km/h 75.6% 0 mm 265 W/m2
13:14 8.6 °C 4.4 °C 1017.2 hPa North 5.8 km/h 17.7 km/h 74.7% 0 mm 69 W/m2
13:19 8.3 °C 4.2 °C 1016.8 hPa North 4.8 km/h 11.3 km/h 75.4% 0 mm 262 W/m2
13:24 8.4 °C 4.4 °C 1016.8 hPa North 7.9 km/h 17.7 km/h 76.3% 0 mm 274 W/m2
13:29 8.6 °C 4.4 °C 1016.8 hPa NNW 5 km/h 14.5 km/h 75.2% 0 mm 271 W/m2
13:34 8.8 °C 4.6 °C 1016.8 hPa North 2.7 km/h 11.3 km/h 74.8% 0 mm 253 W/m2
13:39 9.7 °C 5.4 °C 1016.8 hPa North 3.1 km/h 8 km/h 74.8% 0 mm 244 W/m2
13:44 9.2 °C 4.6 °C 1016.8 hPa NNW 2.7 km/h 8 km/h 72.4% 0 mm 250 W/m2
13:49 9.1 °C 4.6 °C 1016.8 hPa NNW 3.2 km/h 12.9 km/h 73.9% 0 mm 251 W/m2
13:54 8.7 °C 4.2 °C 1016.8 hPa North 5.8 km/h 16.1 km/h 73.7% 0 mm 237 W/m2
13:59 8.9 °C 4.7 °C 1016.8 hPa NNW 1.8 km/h 6.4 km/h 74.7% 0 mm 200 W/m2
14:04 9.6 °C 5.1 °C 1016.8 hPa North 4.2 km/h 11.3 km/h 73.4% 0 mm 193 W/m2
14:09 9.2 °C 4.6 °C 1016.8 hPa NNE 4.2 km/h 12.9 km/h 72.5% 0 mm 192 W/m2
14:14 9.2 °C 4.7 °C 1016.8 hPa NNE 2.6 km/h 8 km/h 73.7% 0 mm 204 W/m2
14:19 9.7 °C 5.3 °C 1016.8 hPa North 3.7 km/h 12.9 km/h 74.6% 0 mm 188 W/m2
14:24 8.9 °C 4.3 °C 1017.2 hPa NNW 6.8 km/h 12.9 km/h 72.7% 0 mm 146 W/m2
14:29 8.3 °C 3.9 °C 1017.2 hPa North 6.4 km/h 12.9 km/h 73.7% 0 mm 158 W/m2
14:34 8.3 °C 3.9 °C 1017.2 hPa North 1.8 km/h 11.3 km/h 74.5% 0 mm 127 W/m2
14:39 8.2 °C 4 °C 1017.2 hPa NNW 4.3 km/h 12.9 km/h 75% 0 mm 127 W/m2
14:44 8.3 °C 4.1 °C 1017.2 hPa NNW 4.2 km/h 12.9 km/h 75% 0 mm 120 W/m2
14:49 8.6 °C 4.4 °C 1017.2 hPa NNW 1.1 km/h 3.2 km/h 75.2% 0 mm 116 W/m2
14:54 8.7 °C 4.4 °C 1016.8 hPa NNW 5.5 km/h 14.5 km/h 74.5% 0 mm 105 W/m2
14:59 8.4 °C 4 °C 1016.8 hPa NW 4.7 km/h 12.9 km/h 74% 0 mm 95 W/m2
15:04 8.2 °C 3.8 °C 1016.8 hPa NNW 5.8 km/h 14.5 km/h 74.3% 0 mm 30 W/m2
15:09 7.9 °C 3.7 °C 1016.8 hPa WNW 3.2 km/h 14.5 km/h 75.2% 0 mm 72 W/m2
15:14 8.1 °C 4.2 °C 1017.2 hPa NW 0.2 km/h 1.6 km/h 76.4% 0 mm 72 W/m2
15:19 8.3 °C 4.5 °C 1017.2 hPa WNW 3.7 km/h 9.7 km/h 76.5% 0 mm 67 W/m2
15:24 8.2 °C 4.2 °C 1017.2 hPa NW 4 km/h 9.7 km/h 75.7% 0 mm 58 W/m2
15:29 8.1 °C 4.1 °C 1017.2 hPa WNW 3.5 km/h 9.7 km/h 75.6% 0 mm 46 W/m2
15:34 8.2 °C 4.2 °C 1017.2 hPa NW 0.5 km/h 9.7 km/h 76% 0 mm 39 W/m2
15:39 8.4 °C 4.6 °C 1017.2 hPa Calm   1.6 km/h 76.5% 0 mm 30 W/m2
15:44 8.7 °C 4.7 °C 1017.2 hPa NW 1.4 km/h 4.8 km/h 75.8% 0 mm 26 W/m2
15:49 8.6 °C 4.4 °C 1017.2 hPa NW 0.3 km/h 3.2 km/h 75% 0 mm 21 W/m2
15:54 8.3 °C 4.1 °C 1017.2 hPa NW 0.5 km/h 3.2 km/h 75% 0 mm 16 W/m2
15:59 8 °C 3.8 °C 1017.2 hPa NW 0.5 km/h 3.2 km/h 75% 0 mm 14 W/m2
16:04 7.8 °C 3.7 °C 1017.2 hPa Calm   1.6 km/h 75.8% 0 mm 11 W/m2
16:09 7.7 °C 3.7 °C 1017.2 hPa Calm   1.6 km/h 76% 0 mm 11 W/m2
16:14 7.5 °C 3.6 °C 1017.2 hPa NW 0.3 km/h 1.6 km/h 76.4% 0 mm 7 W/m2
16:19 7.3 °C 3.6 °C 1017.2 hPa NW 0.2 km/h 3.2 km/h 77% 0 mm 5 W/m2
16:24 7.2 °C 3.6 °C 1017.2 hPa Calm     77.6% 0 mm 0 W/m2
16:29 7.1 °C 3.5 °C 1017.2 hPa Calm     78% 0 mm 0 W/m2
16:34 6.8 °C 3.4 °C 1017.2 hPa Calm     78.8% 0 mm 0 W/m2
16:39 6.6 °C 3.2 °C 1017.2 hPa NW 1.9 km/h 4.8 km/h 79.1% 0 mm 0 W/m2
16:44 6.3 °C 3.2 °C 1017.2 hPa NW 0.8 km/h 4.8 km/h 80% 0 mm 0 W/m2
16:49 6.1 °C 2.9 °C 1017.5 hPa NW 0.3 km/h 3.2 km/h 80% 0 mm 0 W/m2
16:54 5.8 °C 2.8 °C 1017.5 hPa Calm     81% 0 mm 0 W/m2
16:59 5.6 °C 2.8 °C 1017.5 hPa Calm     82% 0 mm 0 W/m2
17:04 5.2 °C 2.6 °C 1017.5 hPa NW 1.9 km/h 4.8 km/h 82.8% 0 mm 0 W/m2
17:09 4.9 °C 2.3 °C 1017.5 hPa NW 1.3 km/h 4.8 km/h 83.4% 0 mm 0 W/m2
17:14 4.8 °C 2.3 °C 1017.5 hPa NW 0.6 km/h 3.2 km/h 84% 0 mm 0 W/m2
17:19 4.7 °C 2.4 °C 1017.5 hPa Calm   1.6 km/h 84.9% 0 mm 0 W/m2
17:24 4.7 °C 2.4 °C 1017.5 hPa Calm   1.6 km/h 85% 0 mm 0 W/m2
17:29 4.6 °C 2.3 °C 1017.5 hPa Calm   1.6 km/h 85% 0 mm 0 W/m2
17:34 4.4 °C 2.2 °C 1017.5 hPa Calm   1.6 km/h 85.3% 0 mm 0 W/m2
17:39 4.2 °C 2.1 °C 1017.5 hPa Calm   1.6 km/h 85.9% 0 mm 0 W/m2
17:44 4 °C 1.9 °C 1017.5 hPa Calm     86% 0 mm 0 W/m2
17:49 3.8 °C 1.7 °C 1017.5 hPa Calm     86% 0 mm 0 W/m2
17:54 3.7 °C 1.7 °C 1017.5 hPa Calm     86.7% 0 mm 0 W/m2
17:59 3.7 °C 1.7 °C 1017.5 hPa Calm   1.6 km/h 87% 0 mm 0 W/m2
18:04 3.5 °C 1.5 °C 1017.8 hPa Calm   1.6 km/h 87% 0 mm 0 W/m2
18:09 3.3 °C 1.3 °C 1017.8 hPa Calm     87.2% 0 mm 0 W/m2
18:14 3.3 °C 1.5 °C 1017.8 hPa Calm     87.9% 0 mm 0 W/m2
18:19 3.3 °C 1.5 °C 1017.8 hPa Calm     88% 0 mm 0 W/m2
18:24 3.2 °C 1.3 °C 1017.8 hPa Calm     88% 0 mm 0 W/m2
18:29 3.1 °C 1.3 °C 1017.8 hPa Calm     88% 0 mm 0 W/m2
18:34 3 °C 1.2 °C 1017.8 hPa Calm     88% 0 mm 0 W/m2
18:39 2.9 °C 1.3 °C 1017.8 hPa Calm     89% 0 mm 0 W/m2
18:44 2.9 °C 1.3 °C 1017.8 hPa Calm     89% 0 mm 0 W/m2
18:49 2.8 °C 1.2 °C 1017.8 hPa Calm     89% 0 mm 0 W/m2
18:54 2.7 °C 1.1 °C 1017.8 hPa Calm     89% 0 mm 0 W/m2
18:59 2.6 °C 1 °C 1017.8 hPa Calm     89% 0 mm 0 W/m2
19:04 2.6 °C 1 °C 1017.8 hPa Calm     89% 0 mm 0 W/m2
19:09 2.6 °C 1 °C 1017.8 hPa Calm     89% 0 mm 0 W/m2
19:14 2.4 °C 0.9 °C 1017.8 hPa Calm     89.5% 0 mm 0 W/m2
19:19 2.3 °C 0.8 °C 1017.8 hPa Calm     89.6% 0 mm 0 W/m2
19:24 2.2 °C 0.7 °C 1018.2 hPa Calm     89.7% 0 mm 0 W/m2
19:29 2.2 °C 0.7 °C 1018.2 hPa Calm     90% 0 mm 0 W/m2
19:34 2.3 °C 0.8 °C 1018.2 hPa Calm     90% 0 mm 0 W/m2
19:39 2.2 °C 0.7 °C 1018.2 hPa Calm     90% 0 mm 0 W/m2
19:44 2.2 °C 0.7 °C 1018.2 hPa Calm     90% 0 mm 0 W/m2
19:49 2.2 °C 0.7 °C 1018.2 hPa Calm     90% 0 mm 0 W/m2
19:54 2.2 °C 0.7 °C 1018.2 hPa Calm     90% 0 mm 0 W/m2
19:59 2.2 °C 0.7 °C 1018.2 hPa Calm     90% 0 mm 0 W/m2
20:04 2.2 °C 0.8 °C 1018.2 hPa Calm     90.2% 0 mm 0 W/m2
20:09 2.2 °C 0.7 °C 1017.8 hPa Calm     90% 0 mm 0 W/m2
20:14 2.2 °C 0.8 °C 1017.8 hPa Calm     90.6% 0 mm 0 W/m2
20:19 2.1 °C 0.8 °C 1017.8 hPa Calm     91% 0 mm 0 W/m2
20:24 2.1 °C 0.8 °C 1017.8 hPa Calm     91% 0 mm 0 W/m2
20:29 2.1 °C 0.8 °C 1017.8 hPa Calm     91% 0 mm 0 W/m2
20:34 2.1 °C 0.8 °C 1017.8 hPa Calm     91% 0 mm 0 W/m2
20:39 2.1 °C 0.7 °C 1017.8 hPa Calm     91% 0 mm 0 W/m2
20:44 1.9 °C 0.6 °C 1017.8 hPa Calm     91% 0 mm 0 W/m2
20:49 1.9 °C 0.6 °C 1017.8 hPa NW 0.3 km/h 3.2 km/h 91% 0 mm 0 W/m2
20:54 1.9 °C 0.6 °C 1017.8 hPa NW 0.2 km/h 3.2 km/h 91% 0 mm 0 W/m2
20:59 1.8 °C 0.6 °C 1017.8 hPa Calm     91% 0 mm 0 W/m2
21:04 1.7 °C 0.4 °C 1017.8 hPa Calm     91% 0 mm 0 W/m2
21:09 1.6 °C 0.3 °C 1017.8 hPa Calm     91% 0 mm 0 W/m2
21:14 1.6 °C 0.2 °C 1017.8 hPa Calm     91% 0 mm 0 W/m2
21:19 1.5 °C 0.2 °C 1017.8 hPa Calm     91% 0 mm 0 W/m2
21:24 1.4 °C 0.2 °C 1017.8 hPa Calm     91.2% 0 mm 0 W/m2
21:29 1.4 °C 0.1 °C 1017.8 hPa Calm     91.1% 0 mm 0 W/m2
21:34 1.5 °C 0.3 °C 1017.8 hPa Calm     92% 0 mm 0 W/m2
21:39 1.4 °C 0.2 °C 1017.8 hPa Calm     92% 0 mm 0 W/m2
21:44 1.4 °C 0.2 °C 1017.8 hPa Calm     92% 0 mm 0 W/m2
21:49 1.3 °C 0.1 °C 1017.8 hPa Calm   1.6 km/h 92% 0 mm 0 W/m2
21:54 1.3 °C 0.1 °C 1017.8 hPa Calm   1.6 km/h 92% 0 mm 0 W/m2
21:59 1.2 °C -0.1 °C 1017.8 hPa Calm     92% 0 mm 0 W/m2
22:04 1.1 °C -0.1 °C 1017.8 hPa Calm     92% 0 mm 0 W/m2
22:09 1.1 °C -0.2 °C 1017.5 hPa Calm     92% 0 mm 0 W/m2
22:14 1 °C -0.2 °C 1017.5 hPa Calm     92% 0 mm 0 W/m2
22:19 1 °C -0.2 °C 1017.5 hPa Calm   1.6 km/h 92% 0 mm 0 W/m2
22:24 0.9 °C -0.2 °C 1017.5 hPa Calm     92% 0 mm 0 W/m2
22:29 0.9 °C -0.3 °C 1017.5 hPa Calm     92% 0 mm 0 W/m2
22:34 0.8 °C -0.3 °C 1017.5 hPa Calm     92% 0 mm 0 W/m2
22:39 0.7 °C -0.5 °C 1017.5 hPa Calm     92% 0 mm 0 W/m2
22:44 0.7 °C -0.5 °C 1017.5 hPa Calm     92% 0 mm 0 W/m2
22:49 0.6 °C -0.5 °C 1017.5 hPa Calm     92% 0 mm 0 W/m2
22:54 0.6 °C -0.5 °C 1017.5 hPa Calm     92% 0 mm 0 W/m2
22:59 0.6 °C -0.5 °C 1017.5 hPa Calm   1.6 km/h 92% 0 mm 0 W/m2
23:04 0.6 °C -0.5 °C 1017.8 hPa Calm     92% 0 mm 0 W/m2
23:09 0.6 °C -0.5 °C 1017.5 hPa Calm     92% 0 mm 0 W/m2
23:14 0.6 °C -0.6 °C 1017.8 hPa Calm     92% 0 mm 0 W/m2
23:19 0.4 °C -0.7 °C 1017.5 hPa Calm     92% 0 mm 0 W/m2
23:24 0.4 °C -0.7 °C 1017.8 hPa Calm   1.6 km/h 92% 0 mm 0 W/m2
23:29 0.3 °C -0.8 °C 1017.5 hPa Calm   1.6 km/h 92% 0 mm 0 W/m2
23:34 0.3 °C -0.8 °C 1017.8 hPa Calm     92% 0 mm 0 W/m2
23:39 0.2 °C -0.9 °C 1017.5 hPa Calm     92% 0 mm 0 W/m2
23:44 0.2 °C -0.9 °C 1017.5 hPa Calm     92% 0 mm 0 W/m2
23:49 0.2 °C -0.9 °C 1017.5 hPa Calm     92% 0 mm 0 W/m2
23:54 0.2 °C -0.9 °C 1017.5 hPa Calm     92% 0 mm 0 W/m2
23:59 0.2 °C -0.9 °C 1017.5 hPa Calm     92% 0 mm 0 W/m2
Bath Spa Weather
Compliments of Weather Underground - 2 mb